Aberdeen, Wielka Brytania

10:38 BST dnia 02-kwiecień-2015 (GMT +0100)
Stoneywood | | Change Station
CLOSE
Current Station
Stacja PWS
Location: Aberdeen,
n.p.m.: 200 ft
Najbliższa stacja pogodowa

Wysokość 200 ft 57.19 °N, 2.18 °W | Updated 1 second ago

Scattered Clouds
obłoki zanikające
44.2 ° F
Odczuwalna 41 ° F
Płn.
5.8
Wiatr zmienny Wiatr od PnWs
Gusts 12.3 mph

Dziś
Wysoka -- | Niska -- ° F
--% Prawdop. opadów
Wczoraj
Wysoka -- | Niska -- ° F
Precip. -- cali
6:36 AM 7:50 PM
Powiększający się Księżyc, 96% visible
Ciśnienie 30.06 cali
Widzialność 6.2 mil
chmury obłoki zanikające 1500 ft
czynnik chłodzący wiatru 41 ° F
Punkt rosy 36 ° F
Wilgotność 72%
Opady deszczu 0.00 cali
grubość pokrywy śnieżnej Niedostępne.
UV 2.0 z 12
Pyłki Niedostępne.
Jakość powietrza Niedostępne.
Flu Activity Niedostępne.
METAR EGPD 020920Z 33012KT 9999 VCSH SCT015 05/03 Q1018 NOSIG

More Conditions Fewer Conditions

Ciśnienie 30.06 cali
Widzialność 6.2 mil
chmury obłoki zanikające 1500 ft
czynnik chłodzący wiatru 41 ° F
Punkt rosy 36 ° F
Wilgotność 72%
Opady deszczu 0.00 cali
grubość pokrywy śnieżnej Niedostępne.
UV 2.0 z 12
Pyłki Niedostępne.
Jakość powietrza Niedostępne.
Flu Activity Niedostępne.
METAR EGPD 020920Z 33012KT 9999 VCSH SCT015 05/03 Q1018 NOSIG

More Conditions Fewer Conditions

10-Day Weather Forecast

Almanac

Astronomia

Apr. 02, 2015 Wschód Zachów
Aktualny czas
Zmierzch cywilny
Zmierzch żeglarski
świt/zmierzch astronomiczny
Księżyc
całkowite oświetlenie
Długość dnia
Tomorrow will be .
, % of the Moon is Illuminated

Dzisiejsze ekstrema

Country Highs Country Lows

Community

WunderPhotos

Upload Photos

1,810,215 zdjęcia zostały przesłane!

WunderBlogs® & News

Nearby

Jakość powietrza

  Jakość powietrza czynnik AQ Zanieczyszczenie
Not available.

Głębokość pokrywy śnieżnej

Station Depth n.p.m.

Aktywność sejsmiczna

Miejscowość Distance Mag. Time & Date
Minimum magnitude displayed is 2.5.

Temperatury wody na wybrzeżu

Miejsce Temperatura

Stations

Najbliższa stacja pogodowa

Lokalizacja stacji Temp. czynnik chłodzący wiatru Punkt rosy Wilgotność Wiatr Precip. Wysokość Uaktualniono Typ